createdAt,value
2023-04-29T00:00:18.683Z,2.43
2023-04-29T00:02:47.160Z,2.50
2023-04-29T00:05:18.862Z,2.43
2023-04-29T00:07:48.658Z,2.30
2023-04-29T00:10:17.090Z,2.40
2023-04-29T00:12:45.436Z,2.67
2023-04-29T00:15:20.969Z,2.50
2023-04-29T00:17:49.314Z,3.10
2023-04-29T00:20:18.157Z,3.10
2023-04-29T00:22:46.449Z,3.27
2023-04-29T00:25:19.101Z,2.50
2023-04-29T00:27:47.417Z,2.77
2023-04-29T00:30:15.781Z,2.50
2023-04-29T00:32:44.739Z,2.00
2023-04-29T00:35:13.586Z,1.60
2023-04-29T00:37:41.899Z,1.70
2023-04-29T00:40:15.396Z,1.60
2023-04-29T00:42:45.243Z,2.10
2023-04-29T00:45:13.761Z,1.90
2023-04-29T00:47:42.201Z,2.07
2023-04-29T00:50:11.505Z,2.00
2023-04-29T00:52:40.265Z,2.00
2023-04-29T00:55:10.033Z,2.20
2023-04-29T00:57:39.123Z,1.80
2023-04-29T01:00:11.140Z,1.97
2023-04-29T01:02:39.715Z,1.87
2023-04-29T01:05:08.845Z,1.87
2023-04-29T01:07:46.803Z,1.90
2023-04-29T01:10:21.257Z,1.70
2023-04-29T01:13:00.611Z,1.77
2023-04-29T01:15:41.547Z,1.70
2023-04-29T01:18:15.781Z,1.90
2023-04-29T01:20:45.348Z,1.80
2023-04-29T01:23:13.663Z,1.87
2023-04-29T01:25:43.937Z,2.00
2023-04-29T01:28:23.260Z,1.70
2023-04-29T01:30:58.756Z,1.43
2023-04-29T01:33:45.274Z,1.47
2023-04-29T01:36:26.649Z,1.67
2023-04-29T01:39:09.786Z,1.70
2023-04-29T01:41:45.908Z,1.97
2023-04-29T01:44:20.790Z,1.83
2023-04-29T01:46:53.999Z,1.70
2023-04-29T01:49:22.921Z,2.00
2023-04-29T01:51:53.837Z,2.10
2023-04-29T01:54:22.882Z,1.53
2023-04-29T01:56:52.999Z,1.73
2023-04-29T01:59:22.208Z,1.70
2023-04-29T02:01:51.360Z,1.83
2023-04-29T02:04:19.704Z,1.67
2023-04-29T02:06:51.074Z,1.70
2023-04-29T02:09:19.460Z,1.60
2023-04-29T02:11:47.789Z,1.33
2023-04-29T02:14:17.493Z,1.77
2023-04-29T02:16:46.513Z,1.47
2023-04-29T02:19:15.289Z,1.30
2023-04-29T02:21:43.531Z,1.33
2023-04-29T02:24:11.906Z,1.30
2023-04-29T02:26:40.297Z,1.20
2023-04-29T02:29:08.578Z,1.40
2023-04-29T02:31:38.263Z,1.00
2023-04-29T02:34:06.634Z,1.03
2023-04-29T02:36:35.028Z,1.10
2023-04-29T02:39:03.388Z,1.20
2023-04-29T02:41:33.501Z,1.10
2023-04-29T02:44:01.844Z,0.93
2023-04-29T02:46:30.125Z,1.27
2023-04-29T02:48:59.841Z,1.00
2023-04-29T02:51:28.122Z,1.20
2023-04-29T02:53:56.744Z,1.03
2023-04-29T02:56:25.119Z,1.00
2023-04-29T02:58:53.490Z,1.00
2023-04-29T03:01:21.936Z,1.00
2023-04-29T03:03:50.559Z,0.90
2023-04-29T03:06:20.453Z,0.70
2023-04-29T03:08:48.710Z,1.10
2023-04-29T03:11:17.069Z,1.07
2023-04-29T03:13:48.371Z,0.90
2023-04-29T03:16:18.919Z,1.10
2023-04-29T03:18:47.258Z,1.00
2023-04-29T03:21:22.032Z,1.33
2023-04-29T03:23:50.402Z,1.70
2023-04-29T03:26:18.873Z,2.77
2023-04-29T03:28:47.823Z,2.10
2023-04-29T03:31:16.717Z,2.33
2023-04-29T03:33:45.121Z,2.20
2023-04-29T03:36:13.450Z,2.67
2023-04-29T03:38:43.371Z,2.60
2023-04-29T03:41:11.793Z,2.50
2023-04-29T03:43:40.161Z,2.33
2023-04-29T03:46:08.693Z,2.53
2023-04-29T03:48:40.077Z,2.10
2023-04-29T03:51:11.245Z,2.30
2023-04-29T03:53:39.941Z,2.30
2023-04-29T03:56:09.804Z,2.47
2023-04-29T03:58:38.194Z,3.07
2023-04-29T04:01:06.915Z,2.53
2023-04-29T04:03:35.905Z,2.90
2023-04-29T04:06:04.485Z,2.87
2023-04-29T04:08:32.824Z,2.67
2023-04-29T04:11:03.284Z,2.70
2023-04-29T04:13:33.163Z,2.77
2023-04-29T04:16:04.143Z,3.37
2023-04-29T04:18:32.544Z,2.50
2023-04-29T04:21:07.716Z,2.77
2023-04-29T04:23:36.345Z,3.20
2023-04-29T04:26:04.604Z,3.30
2023-04-29T04:28:34.535Z,3.53
2023-04-29T04:31:02.954Z,3.17
2023-04-29T04:33:31.325Z,3.57
2023-04-29T04:35:59.687Z,3.20
2023-04-29T04:38:28.170Z,3.10
2023-04-29T04:40:56.451Z,3.37
2023-04-29T04:43:27.013Z,3.37
2023-04-29T04:45:57.387Z,3.37
2023-04-29T04:48:25.846Z,3.57
2023-04-29T04:50:54.219Z,3.73
2023-04-29T04:53:25.496Z,3.50
2023-04-29T04:55:56.788Z,3.47
2023-04-29T04:58:26.667Z,3.57
2023-04-29T05:00:56.400Z,3.73
2023-04-29T05:03:24.959Z,3.57
2023-04-29T05:05:58.987Z,3.23
2023-04-29T05:08:27.962Z,3.93
2023-04-29T05:10:59.627Z,4.10
2023-04-29T05:13:28.336Z,3.63
2023-04-29T05:15:58.051Z,3.70
2023-04-29T05:18:26.370Z,3.97
2023-04-29T05:20:54.718Z,3.77
2023-04-29T05:23:23.252Z,4.00
2023-04-29T05:25:51.585Z,4.50
2023-04-29T05:28:19.927Z,4.53
2023-04-29T05:30:48.526Z,4.40
2023-04-29T05:33:18.342Z,4.17
2023-04-29T05:35:46.624Z,4.23
2023-04-29T05:38:14.971Z,4.70
2023-04-29T05:40:43.261Z,4.73
2023-04-29T05:43:11.614Z,4.90
2023-04-29T05:45:39.986Z,4.93
2023-04-29T05:48:13.978Z,4.93
2023-04-29T05:50:44.310Z,5.60
2023-04-29T05:53:12.732Z,5.63
2023-04-29T05:55:44.703Z,4.93
2023-04-29T05:58:13.364Z,4.80
2023-04-29T06:00:43.796Z,5.20
2023-04-29T06:03:12.626Z,5.97
2023-04-29T06:05:43.449Z,6.00
2023-04-29T06:08:13.475Z,6.30
2023-04-29T06:10:44.872Z,6.27
2023-04-29T06:13:13.248Z,7.93
2023-04-29T06:15:44.439Z,8.00
2023-04-29T06:18:12.793Z,7.63
2023-04-29T06:20:49.963Z,7.63
2023-04-29T06:23:19.666Z,8.10
2023-04-29T06:25:48.881Z,8.30
2023-04-29T06:28:18.160Z,9.07
2023-04-29T06:30:47.012Z,8.93
2023-04-29T06:33:15.550Z,14.43
2023-04-29T06:35:43.828Z,15.27
2023-04-29T06:38:12.156Z,15.40
2023-04-29T06:40:41.826Z,12.53
2023-04-29T06:43:10.137Z,10.43
2023-04-29T06:45:38.536Z,10.40
2023-04-29T06:48:07.550Z,9.97
2023-04-29T06:50:39.388Z,9.73
2023-04-29T06:53:12.807Z,9.10
2023-04-29T06:55:42.573Z,8.07
2023-04-29T06:58:10.877Z,8.43
2023-04-29T07:00:44.028Z,7.83
2023-04-29T07:03:12.506Z,8.03
2023-04-29T07:05:42.239Z,9.20
2023-04-29T07:08:11.201Z,7.40
2023-04-29T07:10:46.513Z,7.03
2023-04-29T07:13:17.147Z,7.40
2023-04-29T07:15:45.531Z,6.97
2023-04-29T07:18:13.833Z,6.53
2023-04-29T07:20:42.179Z,5.87
2023-04-29T07:23:10.707Z,5.67
2023-04-29T07:25:39.191Z,5.97
2023-04-29T07:28:09.437Z,5.30
2023-04-29T07:30:40.738Z,5.60
2023-04-29T07:33:09.551Z,5.33
2023-04-29T07:35:37.902Z,4.90
2023-04-29T07:38:08.727Z,5.30
2023-04-29T07:40:39.368Z,5.20
2023-04-29T07:43:09.423Z,4.80
2023-04-29T07:45:37.748Z,5.00
2023-04-29T07:48:09.673Z,4.97
2023-04-29T07:50:38.371Z,4.67
2023-04-29T07:53:07.535Z,4.53
2023-04-29T07:55:36.048Z,4.50
2023-04-29T07:58:04.444Z,4.50
2023-04-29T08:00:34.188Z,4.90
2023-04-29T08:03:02.642Z,3.93
2023-04-29T08:05:31.991Z,4.37
2023-04-29T08:08:00.619Z,4.40
2023-04-29T08:10:29.228Z,4.40
2023-04-29T08:12:57.862Z,4.60
2023-04-29T08:15:30.988Z,4.40
2023-04-29T08:18:03.323Z,3.87
2023-04-29T08:20:31.727Z,4.00
2023-04-29T08:23:00.790Z,4.43
2023-04-29T08:25:31.092Z,4.00
2023-04-29T08:27:59.457Z,3.40
2023-04-29T08:30:28.474Z,4.17
2023-04-29T08:32:56.823Z,4.07
2023-04-29T08:35:26.733Z,4.13
2023-04-29T08:37:55.307Z,4.33
2023-04-29T08:40:24.133Z,3.63
2023-04-29T08:42:52.924Z,4.17
2023-04-29T08:45:24.432Z,3.67
2023-04-29T08:47:53.901Z,3.07
2023-04-29T08:50:22.459Z,3.30
2023-04-29T08:52:53.085Z,3.70
2023-04-29T08:55:21.900Z,3.60
2023-04-29T08:57:51.954Z,2.90
2023-04-29T09:00:21.093Z,3.47
2023-04-29T09:02:52.860Z,2.93
2023-04-29T09:05:22.372Z,2.70
2023-04-29T09:07:54.274Z,2.47
2023-04-29T09:10:22.978Z,2.50
2023-04-29T09:12:51.567Z,2.00
2023-04-29T09:15:27.316Z,2.53
2023-04-29T09:17:58.725Z,2.20
2023-04-29T09:20:31.586Z,1.77
2023-04-29T09:23:04.148Z,2.67
2023-04-29T09:25:32.668Z,2.10
2023-04-29T09:28:17.841Z,3.23
2023-04-29T09:30:50.726Z,2.53
2023-04-29T09:33:19.176Z,2.47
2023-04-29T09:35:50.597Z,2.00
2023-04-29T09:38:21.119Z,2.27
2023-04-29T09:43:26.307Z,1.73
2023-04-29T09:45:54.993Z,2.03
2023-04-29T09:48:23.521Z,1.90
2023-04-29T09:51:03.260Z,1.57
2023-04-29T09:53:37.959Z,1.60
2023-04-29T09:56:07.372Z,1.40
2023-04-29T09:58:39.028Z,1.40
2023-04-29T10:01:08.561Z,1.30
2023-04-29T10:03:39.389Z,1.23
2023-04-29T10:06:09.186Z,1.27
2023-04-29T10:08:41.505Z,1.30
2023-04-29T10:11:12.228Z,1.50
2023-04-29T10:13:44.797Z,1.20
2023-04-29T10:16:26.664Z,1.53
2023-04-29T10:18:57.567Z,1.47
2023-04-29T10:21:31.256Z,1.00
2023-04-29T10:24:03.433Z,1.10
2023-04-29T10:26:33.019Z,1.30
2023-04-29T10:29:02.455Z,1.73
2023-04-29T10:31:31.295Z,1.30
2023-04-29T10:34:01.670Z,1.30
2023-04-29T10:36:31.675Z,1.40
2023-04-29T10:39:06.030Z,1.47
2023-04-29T10:41:41.036Z,1.47
2023-04-29T10:44:09.438Z,1.90
2023-04-29T10:46:38.365Z,3.83
2023-04-29T10:49:08.242Z,7.77
2023-04-29T10:51:42.065Z,9.33
2023-04-29T10:54:15.183Z,2.77
2023-04-29T10:56:46.506Z,2.77
2023-04-29T10:59:16.571Z,4.67
2023-04-29T11:01:51.120Z,4.83
2023-04-29T11:04:22.730Z,3.20
2023-04-29T11:06:55.473Z,2.50
2023-04-29T11:09:29.375Z,2.80
2023-04-29T11:12:05.425Z,2.90
2023-04-29T11:14:38.038Z,2.77
2023-04-29T11:17:11.065Z,2.90
2023-04-29T11:19:45.130Z,3.60
2023-04-29T11:22:27.131Z,4.43
2023-04-29T11:25:00.515Z,7.20
2023-04-29T11:27:33.303Z,12.47
2023-04-29T11:30:05.082Z,10.23
2023-04-29T11:32:35.422Z,16.13
2023-04-29T11:35:19.809Z,17.10
2023-04-29T11:37:48.839Z,13.97
2023-04-29T11:40:18.714Z,8.07
2023-04-29T11:42:49.182Z,5.17
2023-04-29T11:45:24.907Z,5.23
2023-04-29T11:47:54.876Z,3.83
2023-04-29T11:50:24.016Z,2.97
2023-04-29T11:52:52.539Z,3.03
2023-04-29T11:55:22.512Z,2.40
2023-04-29T11:57:52.510Z,2.73
2023-04-29T12:00:23.896Z,2.40
2023-04-29T12:02:52.428Z,2.10
2023-04-29T12:05:21.513Z,2.07
2023-04-29T12:07:52.296Z,2.30
2023-04-29T12:10:22.680Z,2.20
2023-04-29T12:12:51.472Z,2.20
2023-04-29T12:15:23.424Z,2.57
2023-04-29T12:17:52.085Z,2.20
2023-04-29T12:20:20.806Z,2.53
2023-04-29T12:22:49.340Z,2.37
2023-04-29T12:25:29.536Z,2.00
2023-04-29T12:28:01.334Z,1.97
2023-04-29T12:30:29.790Z,2.33
2023-04-29T12:32:58.176Z,2.07
2023-04-29T12:35:27.038Z,2.40
2023-04-29T12:37:55.517Z,2.07
2023-04-29T12:40:24.851Z,1.87
2023-04-29T12:42:55.208Z,1.90
2023-04-29T12:45:32.133Z,2.03
2023-04-29T12:48:01.843Z,2.17
2023-04-29T12:50:34.359Z,1.87
2023-04-29T12:53:05.159Z,2.33
2023-04-29T12:55:35.514Z,2.40
2023-04-29T12:58:09.371Z,2.00
2023-04-29T13:00:38.531Z,1.83
2023-04-29T13:03:07.333Z,1.77
2023-04-29T13:05:44.744Z,2.10
2023-04-29T13:08:13.070Z,2.00
2023-04-29T13:10:41.675Z,1.50
2023-04-29T13:13:11.503Z,2.00
2023-04-29T13:15:42.901Z,1.80
2023-04-29T13:18:11.555Z,2.40
2023-04-29T13:20:42.067Z,1.97
2023-04-29T13:23:12.088Z,2.10
2023-04-29T13:25:42.183Z,1.60
2023-04-29T13:28:12.278Z,1.30
2023-04-29T13:33:12.221Z,3.13
2023-04-29T13:35:42.040Z,2.70
2023-04-29T13:38:10.761Z,2.40
2023-04-29T13:40:45.250Z,2.00
2023-04-29T13:43:26.354Z,1.70
2023-04-29T13:46:04.332Z,1.93
2023-04-29T14:02:08.081Z,1.47
2023-04-29T14:04:07.410Z,1.60
2023-04-29T14:06:36.385Z,1.63
2023-04-29T14:09:04.876Z,1.97
2023-04-29T14:11:36.725Z,2.00
2023-04-29T14:14:07.209Z,2.60
2023-04-29T14:16:35.530Z,2.40
2023-04-29T14:19:04.259Z,2.17
2023-04-29T14:21:33.390Z,2.57
2023-04-29T14:24:03.357Z,2.10
2023-04-29T14:26:32.050Z,1.90
2023-04-29T14:29:01.230Z,2.67
2023-04-29T14:31:32.616Z,2.20
2023-04-29T14:34:01.257Z,2.40
2023-04-29T14:36:29.621Z,2.60
2023-04-29T14:38:57.946Z,2.20
2023-04-29T14:41:26.449Z,2.67
2023-04-29T14:43:54.953Z,2.40
2023-04-29T14:46:23.530Z,2.53
2023-04-29T14:48:53.240Z,2.30
2023-04-29T14:51:21.619Z,2.17
2023-04-29T14:53:49.967Z,2.30
2023-04-29T14:56:18.538Z,1.90
2023-04-29T14:58:46.939Z,2.00
2023-04-29T15:01:15.371Z,2.50
2023-04-29T15:03:45.048Z,2.97
2023-04-29T15:06:15.390Z,2.47
2023-04-29T15:08:43.794Z,3.17
2023-04-29T15:11:12.379Z,2.70
2023-04-29T15:13:40.848Z,1.90
2023-04-29T15:16:10.068Z,2.47
2023-04-29T15:18:38.532Z,1.80
2023-04-29T15:21:07.781Z,1.63
2023-04-29T15:23:37.588Z,1.47
2023-04-29T15:26:07.173Z,1.80
2023-04-29T15:28:35.728Z,1.63
2023-04-29T15:31:05.603Z,1.80
2023-04-29T15:33:34.458Z,1.47
2023-04-29T15:36:03.124Z,1.70
2023-04-29T15:38:31.724Z,2.10
2023-04-29T15:41:02.921Z,1.80
2023-04-29T15:43:32.773Z,2.97
2023-04-29T15:46:01.403Z,2.37
2023-04-29T15:48:29.829Z,1.93
2023-04-29T15:50:58.155Z,1.73
2023-04-29T15:53:26.608Z,1.90
2023-04-29T15:55:55.741Z,1.57
2023-04-29T15:58:25.573Z,1.70
2023-04-29T16:00:54.073Z,1.73
2023-04-29T16:03:22.652Z,1.93
2023-04-29T16:05:51.490Z,1.80
2023-04-29T16:08:19.909Z,1.80
2023-04-29T16:10:49.635Z,1.80
2023-04-29T16:13:18.412Z,2.10
2023-04-29T16:15:48.176Z,1.87
2023-04-29T16:18:17.612Z,2.30
2023-04-29T16:20:46.143Z,3.20
2023-04-29T16:23:14.591Z,2.10
2023-04-29T16:25:43.071Z,2.30
2023-04-29T16:28:11.521Z,2.27
2023-04-29T16:30:39.889Z,2.10
2023-04-29T16:33:09.694Z,2.40
2023-04-29T16:35:38.261Z,2.07
2023-04-29T16:38:06.826Z,2.40
2023-04-29T16:40:35.417Z,2.20
2023-04-29T16:43:03.834Z,2.50
2023-04-29T16:45:32.297Z,2.53
2023-04-29T16:48:02.930Z,2.33
2023-04-29T16:50:36.017Z,2.40
2023-04-29T16:53:04.886Z,2.47
2023-04-29T16:55:33.598Z,1.97
2023-04-29T16:58:01.950Z,2.20
2023-04-29T17:00:30.332Z,1.90
2023-04-29T17:02:59.029Z,1.80
2023-04-29T17:05:28.086Z,1.97
2023-04-29T17:07:57.827Z,2.33
2023-04-29T17:10:26.356Z,2.37
2023-04-29T17:12:54.744Z,2.30
2023-04-29T17:15:23.250Z,2.03
2023-04-29T17:17:51.815Z,2.07
2023-04-29T17:20:21.706Z,2.10
2023-04-29T17:22:50.094Z,2.27
2023-04-29T17:25:23.554Z,1.80
2023-04-29T17:27:51.977Z,1.90
2023-04-29T17:30:20.432Z,2.33
2023-04-29T17:32:49.968Z,1.90
2023-04-29T17:35:18.567Z,1.87
2023-04-29T17:37:47.912Z,2.10
2023-04-29T17:40:16.383Z,1.87
2023-04-29T17:42:46.168Z,1.90
2023-04-29T17:45:17.859Z,2.13
2023-04-29T17:47:46.897Z,1.70
2023-04-29T17:50:15.631Z,2.30
2023-04-29T17:52:44.414Z,1.90
2023-04-29T17:55:14.246Z,2.07
2023-04-29T17:57:42.749Z,1.63
2023-04-29T18:00:14.445Z,1.80
2023-04-29T18:02:42.960Z,1.90
2023-04-29T18:05:14.312Z,1.83
2023-04-29T18:07:42.770Z,1.80
2023-04-29T18:10:11.624Z,1.90
2023-04-29T18:12:40.636Z,1.83
2023-04-29T18:15:16.660Z,1.70
2023-04-29T18:17:45.443Z,2.23
2023-04-29T18:20:14.879Z,2.30
2023-04-29T18:22:43.851Z,2.37
2023-04-29T18:25:15.070Z,2.17
2023-04-29T18:27:43.582Z,2.10
2023-04-29T18:30:14.626Z,2.20
2023-04-29T18:32:43.165Z,2.27
2023-04-29T18:35:11.983Z,2.10
2023-04-29T18:37:40.505Z,2.20
2023-04-29T18:40:10.749Z,1.97
2023-04-29T18:42:39.310Z,2.20
2023-04-29T18:45:12.289Z,2.53
2023-04-29T18:47:42.198Z,2.30
2023-04-29T18:50:10.943Z,2.37
2023-04-29T18:52:39.428Z,2.07
2023-04-29T18:55:08.904Z,1.90
2023-04-29T18:57:37.623Z,2.17
2023-04-29T19:00:07.364Z,2.10
2023-04-29T19:02:37.340Z,1.97
2023-04-29T19:05:12.820Z,1.73
2023-04-29T19:07:41.375Z,2.27
2023-04-29T19:10:10.749Z,2.10
2023-04-29T19:12:39.517Z,2.33
2023-04-29T19:15:15.403Z,2.10
2023-04-29T19:17:44.125Z,2.37
2023-04-29T19:20:14.721Z,2.07
2023-04-29T19:22:43.197Z,1.80
2023-04-29T19:25:12.127Z,2.10
2023-04-29T19:27:45.073Z,2.20
2023-04-29T19:30:14.487Z,2.47
2023-04-29T19:32:43.245Z,2.10
2023-04-29T19:35:16.926Z,2.57
2023-04-29T19:37:45.612Z,2.50
2023-04-29T19:40:14.338Z,2.20
2023-04-29T19:42:42.885Z,2.50
2023-04-29T19:45:12.975Z,2.60
2023-04-29T19:47:41.591Z,2.37
2023-04-29T19:50:11.056Z,2.27
2023-04-29T19:52:41.228Z,2.50
2023-04-29T19:55:14.515Z,2.40
2023-04-29T19:57:43.007Z,2.13
2023-04-29T20:00:14.644Z,2.63
2023-04-29T20:02:43.410Z,2.90
2023-04-29T20:05:13.704Z,2.37
2023-04-29T20:07:43.743Z,2.50
2023-04-29T20:10:13.085Z,2.70
2023-04-29T20:12:41.792Z,2.63
2023-04-29T20:15:11.621Z,2.20
2023-04-29T20:17:40.519Z,2.50
2023-04-29T20:20:15.511Z,2.60
2023-04-29T20:22:45.616Z,2.80
2023-04-29T20:25:14.395Z,2.40
2023-04-29T20:27:43.012Z,2.77
2023-04-29T20:30:12.146Z,2.40
2023-04-29T20:32:40.860Z,2.70
2023-04-29T20:35:09.563Z,2.67
2023-04-29T20:37:38.320Z,2.70
2023-04-29T20:40:13.168Z,2.90
2023-04-29T20:42:41.898Z,2.50
2023-04-29T20:45:11.763Z,2.60
2023-04-29T20:47:40.234Z,2.47
2023-04-29T20:50:15.127Z,2.63
2023-04-29T20:52:43.596Z,3.20
2023-04-29T20:55:16.547Z,2.93
2023-04-29T20:57:44.961Z,2.40
2023-04-29T21:00:14.377Z,2.53
2023-04-29T21:02:42.739Z,2.50
2023-04-29T21:05:16.318Z,2.80
2023-04-29T21:07:44.692Z,2.73
2023-04-29T21:10:15.397Z,3.10
2023-04-29T21:12:43.709Z,2.30
2023-04-29T21:15:15.408Z,2.83
2023-04-29T21:17:43.713Z,2.70
2023-04-29T21:20:13.304Z,2.67
2023-04-29T21:22:41.698Z,2.80
2023-04-29T21:25:12.778Z,2.53
2023-04-29T21:27:42.567Z,2.70
2023-04-29T21:30:17.046Z,2.40
2023-04-29T21:32:45.386Z,2.63
2023-04-29T21:35:13.874Z,2.50
2023-04-29T21:37:42.185Z,2.43
2023-04-29T21:40:14.554Z,2.63
2023-04-29T21:42:45.442Z,2.57
2023-04-29T21:45:16.132Z,2.40
2023-04-29T21:47:45.000Z,2.53
2023-04-29T21:50:13.598Z,2.23
2023-04-29T21:52:42.086Z,2.73
2023-04-29T21:55:11.452Z,2.40
2023-04-29T21:57:44.124Z,2.57
2023-04-29T22:00:30.786Z,2.70
2023-04-29T22:03:01.891Z,2.60
2023-04-29T22:05:30.605Z,2.43
2023-04-29T22:08:00.652Z,2.83
2023-04-29T22:10:29.162Z,2.30
2023-04-29T22:12:57.836Z,2.40
2023-04-29T22:15:29.205Z,2.43
2023-04-29T22:17:58.401Z,2.67
2023-04-29T22:20:27.486Z,2.13
2023-04-29T22:22:56.069Z,2.30
2023-04-29T22:25:24.539Z,2.67
2023-04-29T22:27:52.955Z,2.57
2023-04-29T22:30:24.717Z,2.60
2023-04-29T22:32:55.077Z,2.87
2023-04-29T22:35:23.494Z,2.60
2023-04-29T22:37:51.910Z,2.23
2023-04-29T22:40:23.133Z,3.00
2023-04-29T22:42:51.488Z,2.53
2023-04-29T22:45:19.821Z,2.37
2023-04-29T22:47:48.151Z,3.03
2023-04-29T22:50:18.141Z,2.77
2023-04-29T22:52:46.505Z,2.70
2023-04-29T22:55:14.815Z,2.77
2023-04-29T22:57:43.148Z,2.50
2023-04-29T23:00:15.868Z,2.63
2023-04-29T23:02:44.314Z,2.60
2023-04-29T23:05:12.687Z,2.77
2023-04-29T23:07:42.413Z,2.67
2023-04-29T23:10:17.520Z,2.87
2023-04-29T23:12:45.957Z,3.00
2023-04-29T23:15:14.335Z,2.80
2023-04-29T23:17:42.671Z,2.90
2023-04-29T23:20:13.127Z,3.07
2023-04-29T23:22:42.850Z,3.27
2023-04-29T23:25:16.974Z,3.23
2023-04-29T23:27:45.338Z,3.50
2023-04-29T23:30:13.882Z,3.13
2023-04-29T23:32:42.182Z,3.03
2023-04-29T23:35:13.198Z,3.33
2023-04-29T23:37:42.959Z,3.17
2023-04-29T23:40:12.313Z,3.20
2023-04-29T23:42:40.610Z,3.00
2023-04-29T23:45:13.320Z,3.40
2023-04-29T23:47:41.609Z,3.40
2023-04-29T23:50:10.956Z,3.43
2023-04-29T23:52:39.380Z,3.10
2023-04-29T23:55:15.375Z,3.60
2023-04-29T23:57:43.643Z,3.77
